AVAILABLE SLOTS

Available slots for delivery / removal at MultiRio and MultiCar terminals

Calendar
Caption: (Occ.) Occupied - (Ava.) Available - (Tot.) Totals.
NOTE 1: Hover the mouse over the data for their respective caption.
NOTE 2: For operational reasons, even if a slot is available, it is only possible to schedule your desired slot to removal import cargo or container, with at least 3 hours in advance. To delivery export cargo or container you are able to schedule until one minute before desired slot.
Date: 04/19/2018
  • Slots MULTIRIO Removal
    Full
    Removal
    Empty
    Removal
    General Cargo
    Removal
    Warehouse
    Delivery
    Full
    Delivery
    Empty
    Delivery
    General Cargo
    Occ. Ava. Tot. Occ. Ava. Tot. Occ. Ava. Tot. Occ. Ava. Tot. Occ. Ava. Tot. Occ. Ava. Tot. Occ. Ava. Tot.
    00:00 - 01:00 1 0 5 0 0 5 0 0 0 0 0 0 5 0 5 0 0 5 0 0 0
    00:00 - 23:00 1 0 5 0 0 5 0 0 0 0 0 0 5 0 5 0 0 5 0 0 0
    00:30 - 01:30 0 0 5 0 0 5 0 0 0 0 0 0 5 0 5 0 0 5 0 0 0
    01:00 - 02:00 0 0 5 0 0 5 0 0 0 0 0 0 5 0 5 0 0 5 0 0 0
    01:30 - 02:30 0 0 5 0 0 5 0 0 0 0 0 0 4 0 5 0 0 5 0 0 0
    02:00 - 03:00 0 0 5 0 0 5 0 0 0 0 0 0 4 0 5 0 0 5 0 0 0
    02:30 - 03:30 0 0 5 0 0 5 0 0 0 0 0 0 4 0 5 0 0 5 0 0 0
    03:00 - 04:00 0 0 5 0 0 5 0 0 0 0 0 0 5 0 5 0 0 5 0 0 0
    03:30 - 04:30 0 0 5 0 0 5 0 0 0 0 0 0 3 0 5 0 0 5 0 0 0
    04:00 - 05:00 0 0 5 0 0 5 0 0 0 0 0 0 5 0 5 0 0 5 0 0 0
    04:30 - 05:30 0 0 5 0 0 5 0 0 0 0 0 0 4 0 5 0 0 5 0 0 0
    05:00 - 06:00 1 0 5 0 0 5 0 0 0 0 0 0 0 0 5 0 0 5 0 0 0
    05:30 - 06:30 1 0 5 0 0 5 0 0 0 0 0 0 3 0 5 0 0 5 0 0 0
    06:00 - 07:00 0 0 5 0 0 5 0 0 0 0 0 0 2 0 5 0 0 5 0 0 0
    06:30 - 07:30 1 0 5 0 0 5 0 0 0 0 0 0 4 0 5 0 0 5 0 0 0
    07:00 - 08:00 3 0 8 3 0 5 0 0 4 0 0 0 6 0 7 1 0 5 1 0 1
    07:30 - 08:30 0 0 8 0 0 5 0 0 4 0 0 0 4 0 8 0 0 5 1 0 1
    08:00 - 09:00 8 0 8 2 0 5 0 0 4 1 0 4 6 0 8 1 0 5 0 0 1
    08:30 - 09:30 8 0 8 2 0 5 0 0 4 0 0 4 8 0 8 0 0 5 0 0 1
    09:00 - 10:00 8 0 8 0 0 5 0 0 4 1 0 4 8 0 9 3 0 5 0 0 1
    09:30 - 10:30 8 0 8 2 0 5 0 0 4 0 0 4 7 0 9 1 0 5 0 0 1
    10:00 - 11:00 3 0 8 1 0 5 0 0 4 3 0 4 8 0 9 3 0 5 0 0 1
    10:30 - 11:30 3 0 8 2 0 5 0 0 4 0 0 4 9 0 9 0 0 5 1 0 1
    11:00 - 12:00 5 0 8 2 0 5 0 0 4 0 0 4 9 0 9 5 0 5 1 0 1
    11:30 - 12:30 1 0 8 2 0 5 0 0 4 0 0 4 9 0 9 3 0 5 0 0 1
    12:00 - 13:00 0 0 8 4 0 5 0 0 4 2 0 4 9 0 9 2 0 5 0 0 1
    12:30 - 13:30 7 0 8 2 0 5 0 0 4 0 0 4 10 0 10 0 0 5 0 0 1
    13:00 - 14:00 7 0 8 5 0 5 0 0 4 0 0 4 9 0 10 4 0 5 0 0 1
    13:30 - 14:30 3 0 8 5 0 5 0 0 4 1 0 4 10 0 10 5 0 5 0 0 1
    14:00 - 15:00 3 0 8 5 0 5 0 0 4 0 0 4 10 0 10 2 0 5 0 0 1
    14:30 - 15:30 6 0 8 5 0 5 0 0 4 0 0 4 10 0 10 4 1 5 0 1 1
    15:00 - 16:00 8 0 8 5 0 5 0 0 4 0 0 4 10 0 10 5 0 5 0 1 1
    15:30 - 16:30 6 0 8 4 1 5 0 0 4 0 0 4 10 0 10 5 0 5 0 1 1
    16:00 - 17:00 6 0 8 5 0 5 0 0 4 0 0 4 10 0 10 5 0 5 0 1 1
    16:30 - 17:30 5 0 8 5 0 5 0 0 4 0 0 4 10 0 10 5 0 5 0 1 1
    17:00 - 18:00 6 0 8 5 0 5 0 0 4 0 0 4 5 5 10 5 0 5 0 1 1
    17:30 - 18:30 2 6 8 5 0 5 0 4 4 0 4 4 1 9 10 5 0 5 1 0 1
    18:00 - 19:00 2 6 8 5 0 5 0 4 4 0 4 4 9 1 10 5 0 5 0 1 1
    18:30 - 19:30 3 5 8 5 0 5 0 4 4 0 4 4 1 9 10 5 0 5 0 1 1
    19:00 - 20:00 0 8 8 5 0 5 0 4 4 1 3 4 6 3 9 5 0 5 0 1 1
    19:30 - 20:30 0 8 8 5 0 5 0 4 4 0 4 4 7 2 9 5 0 5 0 1 1
    20:00 - 21:00 4 4 8 5 0 5 0 4 4 0 4 4 8 1 9 5 0 5 1 0 1
    20:30 - 21:30 5 3 8 5 0 5 0 0 0 0 0 0 4 4 8 5 0 5 0 0 0
    21:00 - 22:00 8 0 8 5 0 5 0 0 0 0 0 0 6 2 8 5 0 5 0 0 0
    21:30 - 22:30 7 1 8 5 0 5 0 0 0 0 0 0 7 1 8 5 0 5 0 0 0
    22:00 - 23:00 0 8 8 5 0 5 0 0 0 0 0 0 6 2 8 5 0 5 0 0 0
  • Slots MULTICAR Occ. Ava. Tot.
    09:30 - 11:30 18 0 20
    13:00 - 15:00 15 0 20
    15:00 - 17:00 20 0 20
    17:00 - 19:00 20 0 20
    22:00 - 09:30 20 0 20

photos and videos

View full gallery

case studies

View all studies
  • Gerdau's Industrial Plant in Ouro Branco

    Multitermiais partnered with the Gerdau group on the steel project in the city of Ouro Branco – MG. Multiterminais participated in all stages of the logistics process of this huge operation.

    Read more
  • Mercedes Benz: Total Parts Inventory Control

    The logistics process, from the import of parts, until the delivery to the Mercedes-Benz factory in Juiz de Fora is made by ALB. ALB is a joint venture between Multiterminais and Schenker International, one of the largest freight forwarders in the world.

    Read more

last news

View all news
  • 18Apr/18
    Recycle

    MultiRio and MultiCar achieved 10 years of recycling in...

    Read more
  • 01Apr/18
    Working With SIGVIG

    For cargos which are discharged after March 30th, only ...

    Read more
  • 05Dec/17
    Check the operating hours of the MultiRio Container Terminal during the end of the year holidays

    See the schedules....

    Read more